sensor_id;sensor_type;location;lat;lon;timestamp;pressure;altitude;pressure_sealevel;temperature;humidity
65760;BME280;52496;51.082;5.066;2024-02-21T00:01:57;102264.41;;;9.32;100.00
65760;BME280;52496;51.082;5.066;2024-02-21T00:04:28;102268.75;;;9.33;100.00
65760;BME280;52496;51.082;5.066;2024-02-21T00:06:58;102261.72;;;9.32;100.00
65760;BME280;52496;51.082;5.066;2024-02-21T00:09:29;102247.56;;;9.31;100.00
65760;BME280;52496;51.082;5.066;2024-02-21T00:11:59;102249.22;;;9.32;100.00
65760;BME280;52496;51.082;5.066;2024-02-21T00:14:31;102253.72;;;9.32;100.00
65760;BME280;52496;51.082;5.066;2024-02-21T00:17:01;102242.22;;;9.31;100.00
65760;BME280;52496;51.082;5.066;2024-02-21T00:19:32;102247.69;;;9.30;100.00
65760;BME280;52496;51.082;5.066;2024-02-21T00:22:02;102244.16;;;9.29;100.00
65760;BME280;52496;51.082;5.066;2024-02-21T00:24:33;102233.63;;;9.28;100.00
65760;BME280;52496;51.082;5.066;2024-02-21T00:27:03;102221.97;;;9.29;100.00
65760;BME280;52496;51.082;5.066;2024-02-21T00:29:34;102220.25;;;9.28;100.00
65760;BME280;52496;51.082;5.066;2024-02-21T00:32:05;102210.59;;;9.27;100.00
65760;BME280;52496;51.082;5.066;2024-02-21T00:34:35;102214.25;;;9.26;100.00
65760;BME280;52496;51.082;5.066;2024-02-21T00:37:06;102220.56;;;9.25;100.00
65760;BME280;52496;51.082;5.066;2024-02-21T00:39:36;102215.22;;;9.25;100.00
65760;BME280;52496;51.082;5.066;2024-02-21T00:42:07;102216.91;;;9.26;100.00
65760;BME280;52496;51.082;5.066;2024-02-21T00:44:37;102208.19;;;9.24;100.00
65760;BME280;52496;51.082;5.066;2024-02-21T00:47:08;102210.88;;;9.24;100.00
65760;BME280;52496;51.082;5.066;2024-02-21T01:03:07;102196.97;;;9.20;100.00
65760;BME280;52496;51.082;5.066;2024-02-21T01:05:38;102196.97;;;9.20;100.00
65760;BME280;52496;51.082;5.066;2024-02-21T01:08:08;102191.75;;;9.18;100.00
65760;BME280;52496;51.082;5.066;2024-02-21T01:10:38;102190.09;;;9.17;100.00
65760;BME280;52496;51.082;5.066;2024-02-21T01:13:09;102179.41;;;9.17;100.00
65760;BME280;52496;51.082;5.066;2024-02-21T01:15:39;102179.41;;;9.17;100.00
65760;BME280;52496;51.082;5.066;2024-02-21T01:18:10;102175.06;;;9.16;100.00
65760;BME280;52496;51.082;5.066;2024-02-21T01:20:40;102166.34;;;9.14;100.00
65760;BME280;52496;51.082;5.066;2024-02-21T01:23:10;102151.47;;;9.12;100.00
65760;BME280;52496;51.082;5.066;2024-02-21T01:25:41;102154.28;;;9.10;100.00
65760;BME280;52496;51.082;5.066;2024-02-21T01:28:11;102152.56;;;9.09;100.00
65760;BME280;52496;51.082;5.066;2024-02-21T01:30:42;102152.88;;;9.06;100.00
65760;BME280;52496;51.082;5.066;2024-02-21T01:33:12;102136.84;;;9.06;100.00
65760;BME280;52496;51.082;5.066;2024-02-21T01:35:43;102136.84;;;9.06;100.00
65760;BME280;52496;51.082;5.066;2024-02-21T01:38:13;102133.34;;;9.06;100.00
65760;BME280;52496;51.082;5.066;2024-02-21T01:40:44;102127.16;;;9.05;100.00
65760;BME280;52496;51.082;5.066;2024-02-21T01:43:20;102129.84;;;9.05;100.00
65760;BME280;52496;51.082;5.066;2024-02-21T01:45:55;102137.97;;;9.04;100.00
65760;BME280;52496;51.082;5.066;2024-02-21T01:48:27;102138.84;;;9.04;100.00
65760;BME280;52496;51.082;5.066;2024-02-21T01:50:57;102138.97;;;9.03;100.00
65760;BME280;52496;51.082;5.066;2024-02-21T01:53:35;102137.97;;;9.04;100.00
65760;BME280;52496;51.082;5.066;2024-02-21T01:56:07;102142.47;;;9.03;100.00
65760;BME280;52496;51.082;5.066;2024-02-21T01:58:40;102135.47;;;9.02;100.00
65760;BME280;52496;51.082;5.066;2024-02-21T02:01:12;102135.47;;;9.02;100.00
65760;BME280;52496;51.082;5.066;2024-02-21T02:03:45;102132.78;;;9.02;100.00
65760;BME280;52496;51.082;5.066;2024-02-21T02:06:15;102115.94;;;9.02;100.00
65760;BME280;52496;51.082;5.066;2024-02-21T02:08:46;102111.28;;;9.04;100.00
65760;BME280;52496;51.082;5.066;2024-02-21T02:11:16;102099.78;;;9.03;100.00
65760;BME280;52496;51.082;5.066;2024-02-21T02:13:47;102099.78;;;9.03;100.00
65760;BME280;52496;51.082;5.066;2024-02-21T02:16:17;102099.78;;;9.03;100.00
65760;BME280;52496;51.082;5.066;2024-02-21T02:18:48;102099.78;;;9.03;100.00
65760;BME280;52496;51.082;5.066;2024-02-21T02:21:26;102102.44;;;9.03;100.00
65760;BME280;52496;51.082;5.066;2024-02-21T02:23:57;102097.94;;;9.04;100.00
65760;BME280;52496;51.082;5.066;2024-02-21T02:26:29;102096.16;;;9.04;100.00
65760;BME280;52496;51.082;5.066;2024-02-21T02:29:01;102090.22;;;9.01;100.00
65760;BME280;52496;51.082;5.066;2024-02-21T02:31:32;102091.66;;;8.95;100.00
65760;BME280;52496;51.082;5.066;2024-02-21T02:34:02;102095.59;;;8.91;100.00
65760;BME280;52496;51.082;5.066;2024-02-21T02:36:33;102100.94;;;8.91;100.00
65760;BME280;52496;51.082;5.066;2024-02-21T02:39:04;102096.44;;;8.91;100.00
65760;BME280;52496;51.082;5.066;2024-02-21T02:41:36;102093.63;;;8.93;100.00
65760;BME280;52496;51.082;5.066;2024-02-21T02:44:06;102082.97;;;8.93;100.00
65760;BME280;52496;51.082;5.066;2024-02-21T02:46:36;102075.78;;;8.93;100.00
65760;BME280;52496;51.082;5.066;2024-02-21T02:49:10;102081.00;;;8.95;100.00
65760;BME280;52496;51.082;5.066;2024-02-21T02:51:43;102081.97;;;8.94;100.00
65760;BME280;52496;51.082;5.066;2024-02-21T02:54:13;102079.28;;;8.94;100.00
65760;BME280;52496;51.082;5.066;2024-02-21T02:56:44;102065.81;;;8.95;100.00
65760;BME280;52496;51.082;5.066;2024-02-21T02:59:14;102071.16;;;8.95;100.00
65760;BME280;52496;51.082;5.066;2024-02-21T03:01:45;102075.66;;;8.95;100.00
65760;BME280;52496;51.082;5.066;2024-02-21T03:04:15;102069.47;;;8.94;100.00
65760;BME280;52496;51.082;5.066;2024-02-21T03:06:46;102075.66;;;8.95;100.00
65760;BME280;52496;51.082;5.066;2024-02-21T03:09:16;102070.47;;;8.93;100.00
65760;BME280;52496;51.082;5.066;2024-02-21T03:11:47;102059.66;;;8.95;100.00
65760;BME280;52496;51.082;5.066;2024-02-21T03:14:18;102050.94;;;8.93;100.00
65760;BME280;52496;51.082;5.066;2024-02-21T03:16:51;102036.75;;;8.92;100.00
65760;BME280;52496;51.082;5.066;2024-02-21T03:19:21;102034.22;;;8.91;100.00
65760;BME280;52496;51.082;5.066;2024-02-21T03:21:52;102029.19;;;8.88;100.00
65760;BME280;52496;51.082;5.066;2024-02-21T03:24:23;102021.34;;;8.86;100.00
65760;BME280;52496;51.082;5.066;2024-02-21T03:26:53;102017.25;;;8.82;100.00
65760;BME280;52496;51.082;5.066;2024-02-21T03:29:24;102018.41;;;8.80;100.00
65760;BME280;52496;51.082;5.066;2024-02-21T03:31:54;102006.31;;;8.76;100.00
65760;BME280;52496;51.082;5.066;2024-02-21T03:34:25;102004.94;;;8.71;100.00
65760;BME280;52496;51.082;5.066;2024-02-21T03:36:56;101998.22;;;8.67;100.00
65760;BME280;52496;51.082;5.066;2024-02-21T03:39:26;101996.81;;;8.63;100.00
65760;BME280;52496;51.082;5.066;2024-02-21T03:41:56;102002.44;;;8.60;100.00
65760;BME280;52496;51.082;5.066;2024-02-21T03:44:28;101996.41;;;8.58;100.00
65760;BME280;52496;51.082;5.066;2024-02-21T03:46:59;101991.22;;;8.57;100.00
65760;BME280;52496;51.082;5.066;2024-02-21T03:49:30;101993.03;;;8.56;100.00
65760;BME280;52496;51.082;5.066;2024-02-21T03:52:00;101991.38;;;8.55;100.00
65760;BME280;52496;51.082;5.066;2024-02-21T03:54:31;101988.69;;;8.55;100.00
65760;BME280;52496;51.082;5.066;2024-02-21T03:57:01;101978.03;;;8.55;100.00
65760;BME280;52496;51.082;5.066;2024-02-21T03:59:32;101981.66;;;8.54;100.00
65760;BME280;52496;51.082;5.066;2024-02-21T04:02:03;101978.31;;;8.52;100.00
65760;BME280;52496;51.082;5.066;2024-02-21T04:04:43;101971.28;;;8.51;100.00
65760;BME280;52496;51.082;5.066;2024-02-21T04:07:14;101977.47;;;8.52;100.00
65760;BME280;52496;51.082;5.066;2024-02-21T04:09:45;101974.13;;;8.49;100.00
65760;BME280;52496;51.082;5.066;2024-02-21T04:12:15;101975.91;;;8.49;100.00
65760;BME280;52496;51.082;5.066;2024-02-21T04:14:45;101975.25;;;8.47;100.00
65760;BME280;52496;51.082;5.066;2024-02-21T04:17:16;101990.41;;;8.46;100.00
65760;BME280;52496;51.082;5.066;2024-02-21T04:19:46;101984.19;;;8.46;100.00
65760;BME280;52496;51.082;5.066;2024-02-21T04:22:17;101973.81;;;8.43;100.00
65760;BME280;52496;51.082;5.066;2024-02-21T04:24:48;101983.66;;;8.42;100.00
65760;BME280;52496;51.082;5.066;2024-02-21T04:27:18;101982.53;;;8.45;100.00
65760;BME280;52496;51.082;5.066;2024-02-21T04:29:48;101976.19;;;8.46;100.00
65760;BME280;52496;51.082;5.066;2024-02-21T04:32:19;101974.41;;;8.46;100.00
65760;BME280;52496;51.082;5.066;2024-02-21T04:34:49;101974.25;;;8.48;100.00
65760;BME280;52496;51.082;5.066;2024-02-21T04:37:20;101967.91;;;8.49;100.00
65760;BME280;52496;51.082;5.066;2024-02-21T04:39:51;101978.31;;;8.52;100.00
65760;BME280;52496;51.082;5.066;2024-02-21T04:42:21;101969.34;;;8.53;100.00
65760;BME280;52496;51.082;5.066;2024-02-21T04:44:52;101971.84;;;8.55;100.00
65760;BME280;52496;51.082;5.066;2024-02-21T04:47:22;101967.38;;;8.55;100.00
65760;BME280;52496;51.082;5.066;2024-02-21T04:49:55;101955.84;;;8.55;100.00
65760;BME280;52496;51.082;5.066;2024-02-21T04:52:26;101954.88;;;8.56;100.00
65760;BME280;52496;51.082;5.066;2024-02-21T04:54:56;101949.69;;;8.54;100.00
65760;BME280;52496;51.082;5.066;2024-02-21T04:57:27;101962.03;;;8.55;100.00
65760;BME280;52496;51.082;5.066;2024-02-21T04:59:57;101951.38;;;8.55;100.00
65760;BME280;52496;51.082;5.066;2024-02-21T05:02:27;101942.38;;;8.56;100.00
65760;BME280;52496;51.082;5.066;2024-02-21T05:04:58;101943.22;;;8.57;100.00
65760;BME280;52496;51.082;5.066;2024-02-21T05:07:28;101934.22;;;8.58;100.00
65760;BME280;52496;51.082;5.066;2024-02-21T05:09:59;101929.75;;;8.58;100.00
65760;BME280;52496;51.082;5.066;2024-02-21T05:12:29;101938.72;;;8.57;100.00
65760;BME280;52496;51.082;5.066;2024-02-21T05:15:00;101942.38;;;8.56;100.00
65760;BME280;52496;51.082;5.066;2024-02-21T05:17:31;101940.41;;;8.58;100.00
65760;BME280;52496;51.082;5.066;2024-02-21T05:20:01;101923.44;;;8.59;100.00
65760;BME280;52496;51.082;5.066;2024-02-21T05:22:32;101915.44;;;8.59;100.00
65760;BME280;52496;51.082;5.066;2024-02-21T05:25:02;101911.09;;;8.58;100.00
65760;BME280;52496;51.082;5.066;2024-02-21T05:27:33;101909.38;;;8.57;100.00
65760;BME280;52496;51.082;5.066;2024-02-21T05:30:06;101898.72;;;8.57;100.00
65760;BME280;52496;51.082;5.066;2024-02-21T05:32:36;101895.22;;;8.57;100.00
65760;BME280;52496;51.082;5.066;2024-02-21T05:35:07;101896.88;;;8.58;100.00
65760;BME280;52496;51.082;5.066;2024-02-21T05:37:38;101885.41;;;8.57;100.00
65760;BME280;52496;51.082;5.066;2024-02-21T05:40:09;101890.72;;;8.57;100.00
65760;BME280;52496;51.082;5.066;2024-02-21T05:42:41;101880.06;;;8.57;100.00
65760;BME280;52496;51.082;5.066;2024-02-21T05:45:12;101876.72;;;8.55;100.00
65760;BME280;52496;51.082;5.066;2024-02-21T05:47:43;101882.06;;;8.55;100.00
65760;BME280;52496;51.082;5.066;2024-02-21T05:50:14;101886.53;;;8.55;100.00
65760;BME280;52496;51.082;5.066;2024-02-21T05:52:45;101886.38;;;8.56;100.00
65760;BME280;52496;51.082;5.066;2024-02-21T05:55:15;101876.72;;;8.55;100.00
65760;BME280;52496;51.082;5.066;2024-02-21T05:57:45;101871.69;;;8.52;100.00
65760;BME280;52496;51.082;5.066;2024-02-21T06:00:16;101874.19;;;8.54;100.00
65760;BME280;52496;51.082;5.066;2024-02-21T06:02:47;101866.34;;;8.52;100.00
65760;BME280;52496;51.082;5.066;2024-02-21T06:05:17;101853.16;;;8.50;100.00
65760;BME280;52496;51.082;5.066;2024-02-21T06:07:47;101864.66;;;8.51;100.00
65760;BME280;52496;51.082;5.066;2024-02-21T06:10:18;101853.97;;;8.51;100.00
65760;BME280;52496;51.082;5.066;2024-02-21T06:12:49;101851.47;;;8.49;100.00
65760;BME280;52496;51.082;5.066;2024-02-21T06:15:19;101846.97;;;8.50;100.00
65760;BME280;52496;51.082;5.066;2024-02-21T06:17:50;101836.31;;;8.50;100.00
65760;BME280;52496;51.082;5.066;2024-02-21T06:20:20;101833.66;;;8.50;100.00
65760;BME280;52496;51.082;5.066;2024-02-21T06:22:50;101821.16;;;8.50;100.00
65760;BME280;52496;51.082;5.066;2024-02-21T06:25:21;101822.00;;;8.51;100.00
65760;BME280;52496;51.082;5.066;2024-02-21T06:27:51;101819.31;;;8.51;100.00
65760;BME280;52496;51.082;5.066;2024-02-21T06:30:22;101827.19;;;8.53;100.00
65760;BME280;52496;51.082;5.066;2024-02-21T06:32:52;101823.69;;;8.52;100.00
65760;BME280;52496;51.082;5.066;2024-02-21T06:35:26;101836.84;;;8.54;100.00
65760;BME280;52496;51.082;5.066;2024-02-21T06:37:56;101840.22;;;8.56;100.00
65760;BME280;52496;51.082;5.066;2024-02-21T06:40:27;101837.41;;;8.57;100.00
65760;BME280;52496;51.082;5.066;2024-02-21T06:42:57;101831.22;;;8.57;100.00
65760;BME280;52496;51.082;5.066;2024-02-21T06:45:28;101831.09;;;8.58;100.00
65760;BME280;52496;51.082;5.066;2024-02-21T06:47:58;101830.09;;;8.59;100.00
65760;BME280;52496;51.082;5.066;2024-02-21T06:50:29;101833.47;;;8.61;100.00
65760;BME280;52496;51.082;5.066;2024-02-21T06:52:59;101825.47;;;8.61;100.00
65760;BME280;52496;51.082;5.066;2024-02-21T06:55:30;101829.81;;;8.62;100.00
65760;BME280;52496;51.082;5.066;2024-02-21T06:58:00;101831.47;;;8.63;100.00
65760;BME280;52496;51.082;5.066;2024-02-21T07:00:32;101824.47;;;8.62;100.00
65760;BME280;52496;51.082;5.066;2024-02-21T07:03:02;101822.50;;;8.64;100.00
65760;BME280;52496;51.082;5.066;2024-02-21T07:05:33;101825.00;;;8.66;100.00
65760;BME280;52496;51.082;5.066;2024-02-21T07:08:03;101814.34;;;8.66;100.00
65760;BME280;52496;51.082;5.066;2024-02-21T07:10:34;101812.38;;;8.68;100.00
65760;BME280;52496;51.082;5.066;2024-02-21T07:13:04;101821.22;;;8.68;100.00
65760;BME280;52496;51.082;5.066;2024-02-21T07:15:35;101810.38;;;8.70;100.00
65760;BME280;52496;51.082;5.066;2024-02-21T07:18:06;101800.59;;;8.70;100.00
65760;BME280;52496;51.082;5.066;2024-02-21T07:20:37;101799.72;;;8.70;100.00
65760;BME280;52496;51.082;5.066;2024-02-21T07:23:08;101807.59;;;8.71;100.00
65760;BME280;52496;51.082;5.066;2024-02-21T07:25:39;101800.28;;;8.73;100.00
65760;BME280;52496;51.082;5.066;2024-02-21T07:28:10;101792.97;;;8.76;100.00
65760;BME280;52496;51.082;5.066;2024-02-21T07:30:40;101806.28;;;8.76;100.00
65760;BME280;52496;51.082;5.066;2024-02-21T07:33:11;101792.97;;;8.76;100.00
65760;BME280;52496;51.082;5.066;2024-02-21T07:35:41;101794.66;;;8.77;100.00
65760;BME280;52496;51.082;5.066;2024-02-21T07:38:14;101804.16;;;8.79;100.00
65760;BME280;52496;51.082;5.066;2024-02-21T07:40:45;101798.16;;;8.77;100.00
65760;BME280;52496;51.082;5.066;2024-02-21T07:43:15;101792.97;;;8.76;100.00
65760;BME280;52496;51.082;5.066;2024-02-21T07:45:46;101795.63;;;8.76;100.00
65760;BME280;52496;51.082;5.066;2024-02-21T07:48:16;101781.63;;;8.73;100.00
65760;BME280;52496;51.082;5.066;2024-02-21T07:50:49;101784.59;;;8.70;100.00
65760;BME280;52496;51.082;5.066;2024-02-21T07:53:19;101775.19;;;8.66;100.00
65760;BME280;52496;51.082;5.066;2024-02-21T07:55:50;101773.50;;;8.65;100.00
65760;BME280;52496;51.082;5.066;2024-02-21T07:58:20;101777.31;;;8.63;100.00
65760;BME280;52496;51.082;5.066;2024-02-21T08:00:51;101772.16;;;8.61;100.00
65760;BME280;52496;51.082;5.066;2024-02-21T08:03:21;101775.13;;;8.58;100.00
65760;BME280;52496;51.082;5.066;2024-02-21T08:05:53;101765.28;;;8.59;100.00
65760;BME280;52496;51.082;5.066;2024-02-21T08:08:23;101752.38;;;8.54;100.00
65760;BME280;52496;51.082;5.066;2024-02-21T08:10:55;101747.88;;;8.55;100.00
65760;BME280;52496;51.082;5.066;2024-02-21T08:13:25;101740.03;;;8.53;100.00
65760;BME280;52496;51.082;5.066;2024-02-21T08:15:56;101744.53;;;8.53;100.00
65760;BME280;52496;51.082;5.066;2024-02-21T08:18:27;101731.22;;;8.53;100.00
65760;BME280;52496;51.082;5.066;2024-02-21T08:20:57;101736.53;;;8.53;100.00
65760;BME280;52496;51.082;5.066;2024-02-21T08:23:28;101714.22;;;8.54;100.00
65760;BME280;52496;51.082;5.066;2024-02-21T08:25:59;101717.59;;;8.56;100.00
65760;BME280;52496;51.082;5.066;2024-02-21T08:28:29;101711.13;;;8.58;100.00
65760;BME280;52496;51.082;5.066;2024-02-21T08:31:00;101702.13;;;8.59;100.00
65760;BME280;52496;51.082;5.066;2024-02-21T08:33:30;101701.81;;;8.62;100.00
65760;BME280;52496;51.082;5.066;2024-02-21T08:36:01;101696.31;;;8.64;100.00
65760;BME280;52496;51.082;5.066;2024-02-21T08:38:31;101691.69;;;8.66;100.00
65760;BME280;52496;51.082;5.066;2024-02-21T08:41:02;101686.88;;;8.69;100.00
65760;BME280;52496;51.082;5.066;2024-02-21T08:43:34;101676.91;;;8.71;100.00
65760;BME280;52496;51.082;5.066;2024-02-21T08:46:06;101673.78;;;8.76;100.00
65760;BME280;52496;51.082;5.066;2024-02-21T08:48:36;101662.66;;;8.81;100.00
65760;BME280;52496;51.082;5.066;2024-02-21T08:51:07;101662.06;;;8.87;100.00
65760;BME280;52496;51.082;5.066;2024-02-21T08:53:37;101666.09;;;8.91;100.00
65760;BME280;52496;51.082;5.066;2024-02-21T08:56:08;101656.94;;;8.93;100.00
65760;BME280;52496;51.082;5.066;2024-02-21T08:58:39;101656.50;;;8.98;100.00
65760;BME280;52496;51.082;5.066;2024-02-21T09:01:10;101656.19;;;9.01;100.00
65760;BME280;52496;51.082;5.066;2024-02-21T09:03:40;101648.84;;;9.03;100.00
65760;BME280;52496;51.082;5.066;2024-02-21T09:06:12;101647.69;;;9.06;100.00
65760;BME280;52496;51.082;5.066;2024-02-21T09:08:43;101644.03;;;9.07;100.00
65760;BME280;52496;51.082;5.066;2024-02-21T09:11:14;101642.22;;;9.07;100.00
65760;BME280;52496;51.082;5.066;2024-02-21T09:13:44;101646.25;;;9.11;100.00
65760;BME280;52496;51.082;5.066;2024-02-21T09:16:15;101642.56;;;9.12;100.00
65760;BME280;52496;51.082;5.066;2024-02-21T09:18:45;101643.28;;;9.14;100.00
65760;BME280;52496;51.082;5.066;2024-02-21T09:21:16;101639.59;;;9.15;100.00
65760;BME280;52496;51.082;5.066;2024-02-21T09:23:47;101627.78;;;9.18;100.00
65760;BME280;52496;51.082;5.066;2024-02-21T09:26:17;101623.13;;;9.20;100.00
65760;BME280;52496;51.082;5.066;2024-02-21T09:28:48;101618.31;;;9.24;100.00
65760;BME280;52496;51.082;5.066;2024-02-21T09:31:18;101616.16;;;9.27;100.00
65760;BME280;52496;51.082;5.066;2024-02-21T09:33:49;101612.72;;;9.35;100.00
65760;BME280;52496;51.082;5.066;2024-02-21T09:36:20;101601.41;;;9.41;100.00
65760;BME280;52496;51.082;5.066;2024-02-21T09:38:51;101587.44;;;9.47;100.00
65760;BME280;52496;51.082;5.066;2024-02-21T09:41:26;101575.94;;;9.55;100.00
65760;BME280;52496;51.082;5.066;2024-02-21T09:43:58;101570.78;;;9.61;100.00
65760;BME280;52496;51.082;5.066;2024-02-21T09:46:55;101572.69;;;9.69;100.00
65760;BME280;52496;51.082;5.066;2024-02-21T09:49:32;101550.84;;;9.82;100.00
65760;BME280;52496;51.082;5.066;2024-02-21T09:52:08;101555.22;;;9.91;100.00
65760;BME280;52496;51.082;5.066;2024-02-21T09:54:41;101549.72;;;10.01;100.00
65760;BME280;52496;51.082;5.066;2024-02-21T09:57:15;101547.59;;;10.13;100.00
65760;BME280;52496;51.082;5.066;2024-02-21T09:59:46;101530.56;;;10.22;100.00
65760;BME280;52496;51.082;5.066;2024-02-21T10:02:16;101520.59;;;10.32;100.00
65760;BME280;52496;51.082;5.066;2024-02-21T10:04:47;101504.53;;;10.40;100.00
65760;BME280;52496;51.082;5.066;2024-02-21T10:07:18;101506.72;;;10.53;100.00
65760;BME280;52496;51.082;5.066;2024-02-21T10:10:05;101498.50;;;10.71;100.00
65760;BME280;52496;51.082;5.066;2024-02-21T10:12:36;101494.16;;;10.78;100.00
65760;BME280;52496;51.082;5.066;2024-02-21T10:15:07;101493.47;;;10.84;100.00
65760;BME280;52496;51.082;5.066;2024-02-21T10:17:37;101477.38;;;10.92;100.00
65760;BME280;52496;51.082;5.066;2024-02-21T10:20:09;101480.25;;;10.99;100.00
65760;BME280;52496;51.082;5.066;2024-02-21T10:22:40;101466.31;;;11.03;100.00
65760;BME280;52496;51.082;5.066;2024-02-21T10:25:11;101463.63;;;11.12;100.00
65760;BME280;52496;51.082;5.066;2024-02-21T20:05:01;100192.63;;;9.08;100.00
65760;BME280;52496;51.082;5.066;2024-02-21T20:07:32;100180.94;;;9.09;100.00
65760;BME280;52496;51.082;5.066;2024-02-21T20:10:07;100174.63;;;9.10;100.00
65760;BME280;52496;51.082;5.066;2024-02-21T20:12:39;100170.91;;;9.11;100.00
65760;BME280;52496;51.082;5.066;2024-02-21T20:15:13;100161.06;;;9.12;100.00
65760;BME280;52496;51.082;5.066;2024-02-21T20:17:44;100163.56;;;9.13;100.00
65760;BME280;52496;51.082;5.066;2024-02-21T20:20:16;100152.50;;;9.16;100.00
65760;BME280;52496;51.082;5.066;2024-02-21T20:22:47;100152.50;;;9.16;100.00
65760;BME280;52496;51.082;5.066;2024-02-21T20:25:18;100145.13;;;9.18;100.00
65760;BME280;52496;51.082;5.066;2024-02-21T20:27:49;100137.97;;;9.19;100.00
65760;BME280;52496;51.082;5.066;2024-02-21T20:30:22;100134.44;;;9.18;100.00
65760;BME280;52496;51.082;5.066;2024-02-21T20:32:53;100136.94;;;9.20;100.00
65760;BME280;52496;51.082;5.066;2024-02-21T20:35:25;100137.75;;;9.21;100.00
65760;BME280;52496;51.082;5.066;2024-02-21T20:37:56;100130.41;;;9.23;100.00
65760;BME280;52496;51.082;5.066;2024-02-21T20:40:27;100132.84;;;9.24;100.00
65760;BME280;52496;51.082;5.066;2024-02-21T20:42:57;100120.53;;;9.23;100.00
65760;BME280;52496;51.082;5.066;2024-02-21T20:45:37;100120.97;;;9.27;100.00
65760;BME280;52496;51.082;5.066;2024-02-21T20:48:08;100109.50;;;9.26;100.00
65760;BME280;52496;51.082;5.066;2024-02-21T20:50:39;100107.47;;;9.28;100.00
65760;BME280;52496;51.082;5.066;2024-02-21T20:53:18;100102.94;;;9.29;100.00
65760;BME280;52496;51.082;5.066;2024-02-21T20:55:50;100110.94;;;9.29;100.00
65760;BME280;52496;51.082;5.066;2024-02-21T20:58:28;100112.41;;;9.31;100.00
65760;BME280;52496;51.082;5.066;2024-02-21T21:00:59;100099.06;;;9.31;100.00
65760;BME280;52496;51.082;5.066;2024-02-21T21:03:30;100100.50;;;9.34;100.00
65760;BME280;52496;51.082;5.066;2024-02-21T21:06:03;100089.81;;;9.34;100.00
65760;BME280;52496;51.082;5.066;2024-02-21T21:08:33;100101.34;;;9.34;100.00
65760;BME280;52496;51.082;5.066;2024-02-21T21:11:16;100095.81;;;9.36;100.00
65760;BME280;52496;51.082;5.066;2024-02-21T21:13:46;100089.66;;;9.35;100.00
65760;BME280;52496;51.082;5.066;2024-02-21T21:16:32;100091.28;;;9.36;100.00
65760;BME280;52496;51.082;5.066;2024-02-21T21:19:07;100089.44;;;9.37;100.00
65760;BME280;52496;51.082;5.066;2024-02-21T21:21:38;100090.06;;;9.39;100.00
65760;BME280;52496;51.082;5.066;2024-02-21T21:24:11;100089.44;;;9.37;100.00
65760;BME280;52496;51.082;5.066;2024-02-21T21:26:45;100080.44;;;9.38;100.00
65760;BME280;52496;51.082;5.066;2024-02-21T21:29:16;100087.41;;;9.39;100.00
65760;BME280;52496;51.082;5.066;2024-02-21T21:31:47;100080.03;;;9.41;100.00
65760;BME280;52496;51.082;5.066;2024-02-21T21:34:18;100085.38;;;9.41;100.00
65760;BME280;52496;51.082;5.066;2024-02-21T21:36:48;100083.31;;;9.43;100.00
65760;BME280;52496;51.082;5.066;2024-02-21T21:39:18;100075.13;;;9.45;100.00
65760;BME280;52496;51.082;5.066;2024-02-21T21:41:49;100070.44;;;9.47;100.00
65760;BME280;52496;51.082;5.066;2024-02-21T21:44:20;100070.22;;;9.48;100.00
65760;BME280;52496;51.082;5.066;2024-02-21T21:46:50;100067.56;;;9.48;100.00
65760;BME280;52496;51.082;5.066;2024-02-21T21:49:21;100062.84;;;9.50;100.00
65760;BME280;52496;51.082;5.066;2024-02-21T21:51:51;100059.97;;;9.52;100.00
65760;BME280;52496;51.082;5.066;2024-02-21T21:54:21;100049.13;;;9.53;100.00
65760;BME280;52496;51.082;5.066;2024-02-21T21:56:58;100042.75;;;9.54;100.00
65760;BME280;52496;51.082;5.066;2024-02-21T21:59:28;100049.72;;;9.55;100.00
65760;BME280;52496;51.082;5.066;2024-02-21T22:01:59;100031.69;;;9.57;100.00
65760;BME280;52496;51.082;5.066;2024-02-21T22:04:31;100024.69;;;9.56;100.00
65760;BME280;52496;51.082;5.066;2024-02-21T22:07:02;100022.63;;;9.58;100.00
65760;BME280;52496;51.082;5.066;2024-02-21T22:09:32;100019.97;;;9.58;100.00
65760;BME280;52496;51.082;5.066;2024-02-21T22:12:04;100021.41;;;9.61;100.00
65760;BME280;52496;51.082;5.066;2024-02-21T22:14:35;100010.56;;;9.62;100.00
65760;BME280;52496;51.082;5.066;2024-02-21T22:17:05;100007.88;;;9.62;100.00
65760;BME280;52496;51.082;5.066;2024-02-21T22:19:35;100010.34;;;9.64;100.00
65760;BME280;52496;51.082;5.066;2024-02-21T22:22:06;100006.84;;;9.63;100.00
65760;BME280;52496;51.082;5.066;2024-02-21T22:24:36;100003.16;;;9.64;100.00
65760;BME280;52496;51.082;5.066;2024-02-21T22:27:07;100000.09;;;9.68;100.00
65760;BME280;52496;51.082;5.066;2024-02-21T22:29:38;100012.44;;;9.69;100.00
65760;BME280;52496;51.082;5.066;2024-02-21T22:32:08;99999.69;;;9.71;100.00
65760;BME280;52496;51.082;5.066;2024-02-21T22:34:40;99992.72;;;9.70;100.00
65760;BME280;52496;51.082;5.066;2024-02-21T22:37:11;99996.03;;;9.72;100.00
65760;BME280;52496;51.082;5.066;2024-02-21T22:39:48;99985.94;;;9.74;100.00
65760;BME280;52496;51.082;5.066;2024-02-21T22:42:18;99975.91;;;9.76;100.00
65760;BME280;52496;51.082;5.066;2024-02-21T22:44:49;99977.53;;;9.77;100.00
65760;BME280;52496;51.082;5.066;2024-02-21T22:47:31;99973.47;;;9.81;100.00
65760;BME280;52496;51.082;5.066;2024-02-21T22:50:02;99963.59;;;9.81;100.00
65760;BME280;52496;51.082;5.066;2024-02-21T22:52:33;99976.53;;;9.84;100.00
65760;BME280;52496;51.082;5.066;2024-02-21T22:55:03;99965.69;;;9.86;100.00
65760;BME280;52496;51.082;5.066;2024-02-21T22:57:34;99969.16;;;9.86;100.00
65760;BME280;52496;51.082;5.066;2024-02-21T23:00:05;99953.97;;;9.87;100.00
65760;BME280;52496;51.082;5.066;2024-02-21T23:02:38;99956.41;;;9.88;100.00